createdAt,value
2022-10-29T00:01:27.106Z,20.80
2022-10-29T00:02:58.691Z,24.38
2022-10-29T00:04:30.275Z,22.54
2022-10-29T00:06:01.693Z,23.26
2022-10-29T00:07:33.196Z,25.23
2022-10-29T00:09:04.706Z,26.55
2022-10-29T00:10:36.173Z,25.85
2022-10-29T00:12:07.615Z,27.30
2022-10-29T00:13:38.997Z,23.51
2022-10-29T00:15:10.877Z,24.42
2022-10-29T00:16:42.242Z,22.46
2022-10-29T00:18:13.656Z,24.41
2022-10-29T00:19:45.082Z,23.43
2022-10-29T00:21:16.605Z,22.23
2022-10-29T00:22:47.972Z,26.90
2022-10-29T00:24:19.419Z,26.20
2022-10-29T00:25:50.773Z,21.80
2022-10-29T00:27:27.170Z,23.94
2022-10-29T00:28:58.642Z,24.33
2022-10-29T00:30:30.027Z,24.17
2022-10-29T00:32:01.586Z,23.76
2022-10-29T00:33:32.981Z,27.43
2022-10-29T00:35:04.416Z,27.53
2022-10-29T00:36:35.872Z,25.59
2022-10-29T00:38:07.336Z,25.58
2022-10-29T00:39:38.770Z,21.96
2022-10-29T00:41:10.309Z,23.42
2022-10-29T00:42:41.863Z,22.81
2022-10-29T00:44:13.224Z,23.94
2022-10-29T00:45:44.597Z,23.81
2022-10-29T00:47:16.024Z,27.48
2022-10-29T00:48:47.509Z,23.33
2022-10-29T00:50:19.349Z,26.66
2022-10-29T00:51:50.713Z,24.31
2022-10-29T00:53:22.228Z,27.96
2022-10-29T00:54:53.612Z,23.37
2022-10-29T00:56:24.940Z,25.96
2022-10-29T00:57:56.867Z,26.75
2022-10-29T00:59:28.531Z,25.56
2022-10-29T01:01:04.892Z,26.79
2022-10-29T01:02:36.559Z,22.83
2022-10-29T01:04:08.075Z,27.75
2022-10-29T01:05:39.474Z,26.06
2022-10-29T01:07:10.943Z,27.61
2022-10-29T01:08:42.360Z,25.96
2022-10-29T01:10:13.854Z,27.69
2022-10-29T01:11:45.321Z,25.18
2022-10-29T01:14:48.118Z,23.14
2022-10-29T01:16:25.190Z,22.75
2022-10-29T01:17:57.315Z,28.53
2022-10-29T01:19:29.278Z,22.61
2022-10-29T01:21:00.731Z,21.67
2022-10-29T01:22:42.128Z,23.95
2022-10-29T01:24:13.461Z,22.61
2022-10-29T01:25:44.968Z,25.40
2022-10-29T01:27:16.585Z,22.82
2022-10-29T01:28:47.923Z,24.86
2022-10-29T01:30:19.363Z,25.49
2022-10-29T01:31:50.743Z,25.15
2022-10-29T01:33:22.227Z,25.56
2022-10-29T01:34:53.808Z,25.51
2022-10-29T01:36:25.203Z,24.78
2022-10-29T01:37:56.700Z,25.71
2022-10-29T01:39:28.037Z,24.25
2022-10-29T01:41:04.475Z,27.17
2022-10-29T01:42:36.193Z,25.36
2022-10-29T01:44:07.587Z,23.01
2022-10-29T01:45:38.971Z,22.80
2022-10-29T01:47:10.379Z,27.35
2022-10-29T01:48:41.873Z,26.26
2022-10-29T01:50:13.265Z,27.25
2022-10-29T01:51:44.815Z,25.84
2022-10-29T01:53:17.349Z,23.28
2022-10-29T01:54:48.698Z,26.96
2022-10-29T01:56:20.141Z,22.23
2022-10-29T01:57:51.917Z,25.63
2022-10-29T01:59:35.742Z,24.52
2022-10-29T02:01:14.844Z,28.38
2022-10-29T02:02:48.553Z,23.34
2022-10-29T02:04:20.117Z,24.67
2022-10-29T02:05:51.478Z,25.13
2022-10-29T02:07:23.060Z,24.28
2022-10-29T02:08:54.503Z,23.85
2022-10-29T02:10:25.900Z,27.13
2022-10-29T02:11:57.749Z,23.46
2022-10-29T02:13:29.135Z,21.17
2022-10-29T02:15:00.466Z,24.52
2022-10-29T02:16:31.796Z,22.84
2022-10-29T02:18:03.210Z,23.36
2022-10-29T02:19:36.789Z,23.45
2022-10-29T02:21:08.096Z,24.44
2022-10-29T02:22:39.540Z,24.22
2022-10-29T02:24:11.029Z,27.27
2022-10-29T02:25:42.725Z,25.89
2022-10-29T02:27:14.165Z,27.15
2022-10-29T02:28:45.659Z,23.38
2022-10-29T02:30:17.088Z,22.65
2022-10-29T02:31:48.651Z,27.12
2022-10-29T02:33:20.054Z,24.98
2022-10-29T02:34:51.421Z,28.26
2022-10-29T02:36:22.878Z,24.70
2022-10-29T02:37:55.486Z,24.16
2022-10-29T02:39:26.818Z,27.19
2022-10-29T02:40:58.171Z,24.39
2022-10-29T02:42:29.706Z,26.02
2022-10-29T02:44:05.995Z,24.32
2022-10-29T02:45:37.777Z,26.58
2022-10-29T02:47:10.255Z,21.74
2022-10-29T02:48:41.855Z,25.23
2022-10-29T02:50:13.228Z,26.84
2022-10-29T02:51:44.832Z,24.76
2022-10-29T02:53:16.270Z,22.33
2022-10-29T02:54:47.680Z,28.68
2022-10-29T02:56:19.212Z,30.15
2022-10-29T02:57:50.748Z,31.29
2022-10-29T02:59:22.200Z,29.29
2022-10-29T03:00:53.628Z,30.25
2022-10-29T03:02:25.261Z,29.05
2022-10-29T03:03:56.684Z,24.52
2022-10-29T03:05:33.173Z,23.74
2022-10-29T03:07:04.693Z,23.64
2022-10-29T03:08:36.138Z,26.01
2022-10-29T03:10:07.586Z,20.49
2022-10-29T03:11:39.331Z,23.88
2022-10-29T03:13:10.711Z,24.53
2022-10-29T03:14:42.078Z,25.44
2022-10-29T03:16:13.786Z,23.39
2022-10-29T03:17:45.256Z,26.28
2022-10-29T03:19:16.567Z,24.53
2022-10-29T03:20:47.898Z,24.31
2022-10-29T03:22:19.225Z,23.44
2022-10-29T03:23:50.682Z,27.53
2022-10-29T03:25:22.032Z,26.35
2022-10-29T03:26:53.447Z,27.29
2022-10-29T03:28:24.756Z,24.03
2022-10-29T03:30:01.115Z,28.34
2022-10-29T03:31:32.620Z,27.67
2022-10-29T03:33:03.938Z,24.33
2022-10-29T03:34:35.673Z,24.98
2022-10-29T03:36:07.267Z,25.76
2022-10-29T03:37:38.640Z,24.30
2022-10-29T03:39:10.050Z,27.02
2022-10-29T03:40:41.385Z,23.49
2022-10-29T03:42:12.783Z,20.90
2022-10-29T03:43:44.327Z,25.11
2022-10-29T03:45:20.970Z,22.76
2022-10-29T03:46:52.470Z,22.67
2022-10-29T03:48:23.839Z,22.83
2022-10-29T03:49:55.337Z,22.68
2022-10-29T03:51:26.753Z,25.52
2022-10-29T03:52:58.062Z,21.35
2022-10-29T03:54:29.381Z,21.22
2022-10-29T03:56:05.951Z,24.53
2022-10-29T03:57:37.526Z,24.82
2022-10-29T04:00:40.403Z,21.95
2022-10-29T04:02:11.964Z,29.18
2022-10-29T04:03:43.704Z,24.72
2022-10-29T04:05:15.251Z,23.46
2022-10-29T04:06:46.649Z,25.02
2022-10-29T04:08:18.168Z,22.49
2022-10-29T04:09:49.479Z,25.06
2022-10-29T04:11:21.075Z,25.48
2022-10-29T04:12:52.796Z,26.71
2022-10-29T04:14:24.972Z,27.24
2022-10-29T04:16:01.538Z,27.34
2022-10-29T04:17:32.929Z,25.29
2022-10-29T04:19:04.297Z,23.24
2022-10-29T04:21:22.477Z,25.09
2022-10-29T04:27:49.333Z,23.16
2022-10-29T04:30:08.583Z,23.55
2022-10-29T04:31:39.952Z,28.56
2022-10-29T04:33:11.344Z,26.44
2022-10-29T04:34:42.965Z,25.83
2022-10-29T04:36:14.344Z,26.06
2022-10-29T04:37:45.740Z,22.73
2022-10-29T04:39:23.425Z,24.65
2022-10-29T04:40:55.234Z,24.46
2022-10-29T04:42:26.859Z,23.70
2022-10-29T04:43:58.285Z,25.28
2022-10-29T04:45:29.778Z,23.12
2022-10-29T04:47:01.365Z,26.14
2022-10-29T04:48:32.881Z,22.99
2022-10-29T04:50:04.357Z,26.09
2022-10-29T04:51:36.194Z,24.28
2022-10-29T04:53:07.727Z,24.41
2022-10-29T04:54:39.073Z,23.29
2022-10-29T04:56:10.465Z,25.64
2022-10-29T04:57:42.202Z,26.76
2022-10-29T04:59:13.528Z,24.72
2022-10-29T05:00:45.117Z,25.15
2022-10-29T05:02:16.656Z,26.11
2022-10-29T05:03:48.466Z,25.05
2022-10-29T05:05:19.806Z,24.00
2022-10-29T05:06:51.119Z,24.21
2022-10-29T05:08:22.556Z,25.31
2022-10-29T05:09:53.892Z,27.36
2022-10-29T05:11:25.512Z,27.76
2022-10-29T05:12:57.490Z,25.70
2022-10-29T05:14:29.055Z,24.68
2022-10-29T05:16:00.499Z,26.37
2022-10-29T05:17:32.105Z,24.80
2022-10-29T05:19:08.548Z,22.49
2022-10-29T05:20:39.947Z,25.05
2022-10-29T05:22:11.391Z,22.21
2022-10-29T05:23:42.864Z,22.83
2022-10-29T05:25:15.621Z,23.77
2022-10-29T05:26:47.088Z,23.76
2022-10-29T05:28:18.579Z,24.96
2022-10-29T05:29:49.981Z,20.89
2022-10-29T05:31:21.404Z,23.68
2022-10-29T05:32:53.182Z,24.62
2022-10-29T05:34:24.796Z,22.16
2022-10-29T05:35:56.264Z,26.49
2022-10-29T05:37:27.690Z,26.65
2022-10-29T05:38:59.103Z,30.52
2022-10-29T05:40:30.626Z,26.30
2022-10-29T05:42:02.159Z,24.17
2022-10-29T05:43:33.878Z,21.48
2022-10-29T05:45:05.207Z,23.26
2022-10-29T05:46:36.550Z,23.94
2022-10-29T05:48:07.954Z,22.02
2022-10-29T05:49:49.475Z,32.71
2022-10-29T05:51:21.202Z,28.07
2022-10-29T05:52:52.962Z,23.61
2022-10-29T05:54:24.863Z,25.93
2022-10-29T05:55:56.335Z,23.03
2022-10-29T05:57:27.872Z,25.48
2022-10-29T05:58:59.311Z,24.67
2022-10-29T06:00:30.707Z,28.63
2022-10-29T06:02:02.365Z,23.19
2022-10-29T06:03:34.046Z,24.48
2022-10-29T06:05:05.657Z,26.68
2022-10-29T06:06:37.042Z,22.41
2022-10-29T06:08:08.774Z,23.77
2022-10-29T06:09:40.096Z,28.11
2022-10-29T06:11:11.399Z,29.72
2022-10-29T06:12:42.760Z,27.70
2022-10-29T06:14:14.675Z,25.78
2022-10-29T06:15:46.235Z,23.42
2022-10-29T06:17:27.620Z,22.79
2022-10-29T06:18:59.193Z,23.43
2022-10-29T06:20:30.588Z,25.28
2022-10-29T06:22:02.052Z,28.86
2022-10-29T06:23:33.576Z,25.15
2022-10-29T06:25:04.959Z,25.69
2022-10-29T06:26:36.390Z,24.29
2022-10-29T06:28:07.863Z,22.98
2022-10-29T06:29:39.242Z,22.98
2022-10-29T06:31:11.850Z,22.27
2022-10-29T06:32:43.390Z,24.87
2022-10-29T06:34:15.049Z,23.78
2022-10-29T06:35:46.623Z,27.06
2022-10-29T06:37:18.271Z,23.88
2022-10-29T06:38:49.954Z,29.47
2022-10-29T06:40:21.472Z,24.74
2022-10-29T06:41:52.972Z,24.35
2022-10-29T06:43:24.616Z,22.12
2022-10-29T06:44:56.253Z,22.99
2022-10-29T06:46:27.887Z,24.10
2022-10-29T06:47:59.904Z,21.55
2022-10-29T06:49:31.600Z,23.90
2022-10-29T06:51:02.910Z,22.49
2022-10-29T06:52:34.357Z,24.18
2022-10-29T06:54:05.850Z,27.46
2022-10-29T06:55:37.309Z,24.56
2022-10-29T06:57:08.753Z,24.51
2022-10-29T06:58:40.399Z,26.23
2022-10-29T07:00:11.826Z,20.25
2022-10-29T07:01:43.291Z,25.68
2022-10-29T07:03:14.984Z,22.57
2022-10-29T07:04:46.518Z,22.24
2022-10-29T07:06:18.243Z,22.40
2022-10-29T07:07:50.319Z,22.99
2022-10-29T07:09:21.809Z,24.21
2022-10-29T07:10:53.473Z,26.60
2022-10-29T07:12:24.888Z,23.50
2022-10-29T07:13:56.314Z,25.53
2022-10-29T07:15:30.503Z,26.00
2022-10-29T07:17:02.458Z,23.29
2022-10-29T07:18:33.929Z,19.14
2022-10-29T07:20:05.521Z,23.78
2022-10-29T07:21:37.199Z,22.83
2022-10-29T07:23:08.720Z,24.46
2022-10-29T07:24:40.083Z,21.42
2022-10-29T07:26:11.593Z,23.97
2022-10-29T07:27:43.084Z,22.13
2022-10-29T07:29:14.510Z,23.63
2022-10-29T07:30:45.995Z,19.66
2022-10-29T07:32:17.382Z,24.78
2022-10-29T07:33:48.930Z,23.50
2022-10-29T07:35:20.332Z,23.46
2022-10-29T07:36:51.845Z,23.09
2022-10-29T07:38:23.554Z,20.90
2022-10-29T07:39:54.972Z,22.21
2022-10-29T07:41:26.515Z,21.67
2022-10-29T07:42:58.290Z,22.34
2022-10-29T07:44:30.054Z,21.52
2022-10-29T07:46:01.462Z,20.84
2022-10-29T07:47:32.905Z,20.36
2022-10-29T07:49:04.484Z,22.94
2022-10-29T07:50:35.866Z,24.03
2022-10-29T07:52:07.186Z,24.15
2022-10-29T07:53:38.560Z,23.32
2022-10-29T07:55:09.983Z,19.41
2022-10-29T07:56:45.107Z,26.86
2022-10-29T07:58:19.170Z,27.49
2022-10-29T07:59:55.800Z,30.38
2022-10-29T08:01:27.346Z,21.58
2022-10-29T08:02:58.895Z,25.85
2022-10-29T08:04:30.418Z,19.50
2022-10-29T08:06:01.855Z,19.44
2022-10-29T08:07:33.276Z,22.17
2022-10-29T08:09:05.009Z,20.83
2022-10-29T08:10:36.514Z,24.53
2022-10-29T08:12:08.118Z,21.99
2022-10-29T08:13:39.501Z,21.13
2022-10-29T08:15:11.239Z,20.16
2022-10-29T08:16:42.633Z,23.54
2022-10-29T08:18:14.109Z,22.46
2022-10-29T08:19:45.641Z,22.15
2022-10-29T08:21:17.246Z,22.16
2022-10-29T08:22:48.881Z,23.11
2022-10-29T08:24:20.533Z,20.47
2022-10-29T08:25:52.102Z,22.73
2022-10-29T08:27:23.490Z,24.61
2022-10-29T08:28:56.294Z,20.14
2022-10-29T08:30:27.741Z,20.39
2022-10-29T08:31:59.237Z,22.33
2022-10-29T08:33:30.672Z,19.61
2022-10-29T08:35:02.049Z,20.35
2022-10-29T08:36:34.620Z,19.87
2022-10-29T08:38:06.050Z,19.67
2022-10-29T08:39:37.655Z,21.74
2022-10-29T08:41:09.003Z,17.72
2022-10-29T08:42:40.402Z,17.64
2022-10-29T08:44:11.867Z,18.69
2022-10-29T08:45:43.391Z,19.64
2022-10-29T08:47:14.823Z,20.35
2022-10-29T08:48:46.328Z,21.03
2022-10-29T08:50:17.830Z,17.72
2022-10-29T08:51:49.254Z,16.46
2022-10-29T08:53:35.818Z,18.58
2022-10-29T08:55:07.430Z,20.38
2022-10-29T08:56:38.904Z,24.04
2022-10-29T08:58:10.415Z,20.01
2022-10-29T08:59:42.038Z,19.95
2022-10-29T09:01:13.665Z,18.28
2022-10-29T09:02:45.340Z,20.04
2022-10-29T09:04:17.071Z,17.80
2022-10-29T09:05:48.675Z,20.27
2022-10-29T09:07:20.409Z,21.00
2022-10-29T09:08:52.224Z,21.49
2022-10-29T09:10:23.684Z,18.45
2022-10-29T09:11:55.217Z,20.85
2022-10-29T09:13:26.596Z,16.88
2022-10-29T09:15:08.002Z,21.80
2022-10-29T09:18:12.049Z,18.00
2022-10-29T09:19:44.260Z,18.62
2022-10-29T09:21:15.751Z,19.07
2022-10-29T09:22:47.208Z,20.31
2022-10-29T09:24:18.573Z,18.91
2022-10-29T09:25:50.069Z,19.67
2022-10-29T09:27:21.637Z,16.79
2022-10-29T09:28:53.010Z,19.30
2022-10-29T09:30:24.433Z,19.64
2022-10-29T09:31:55.882Z,14.93
2022-10-29T09:33:27.325Z,18.82
2022-10-29T09:34:58.972Z,15.70
2022-10-29T09:36:30.506Z,18.92
2022-10-29T09:38:01.966Z,18.35
2022-10-29T09:39:34.308Z,20.55
2022-10-29T09:41:05.970Z,18.64
2022-10-29T09:42:37.397Z,21.01
2022-10-29T09:44:08.879Z,18.84
2022-10-29T09:45:40.639Z,19.88
2022-10-29T09:47:12.499Z,16.11
2022-10-29T09:48:44.130Z,15.86
2022-10-29T09:50:15.801Z,18.46
2022-10-29T09:51:47.514Z,17.18
2022-10-29T09:53:19.023Z,18.65
2022-10-29T09:54:50.420Z,18.82
2022-10-29T09:56:22.099Z,21.65
2022-10-29T09:57:53.832Z,23.68
2022-10-29T09:59:30.698Z,18.26
2022-10-29T10:01:02.153Z,17.99
2022-10-29T10:02:33.736Z,18.64
2022-10-29T10:04:05.222Z,19.89
2022-10-29T10:05:41.672Z,16.54
2022-10-29T10:07:14.489Z,16.62
2022-10-29T10:08:51.327Z,20.09
2022-10-29T10:10:22.747Z,16.75
2022-10-29T10:11:54.185Z,16.75
2022-10-29T10:13:27.466Z,19.26
2022-10-29T10:14:59.543Z,21.20
2022-10-29T10:16:36.232Z,19.03
2022-10-29T10:18:07.637Z,18.59
2022-10-29T10:19:39.495Z,17.46
2022-10-29T10:21:10.868Z,19.22
2022-10-29T10:22:42.429Z,16.19
2022-10-29T10:24:14.035Z,16.54
2022-10-29T10:25:45.651Z,16.37
2022-10-29T10:27:17.142Z,19.54
2022-10-29T10:28:48.898Z,16.70
2022-10-29T10:30:20.385Z,18.98
2022-10-29T10:31:51.891Z,21.04
2022-10-29T10:35:04.950Z,21.15
2022-10-29T10:36:36.399Z,17.44
2022-10-29T10:38:07.793Z,16.22
2022-10-29T10:39:39.359Z,19.67
2022-10-29T10:41:11.064Z,19.43
2022-10-29T10:42:42.919Z,17.66
2022-10-29T10:44:14.446Z,21.57
2022-10-29T10:45:45.988Z,20.70
2022-10-29T10:47:17.709Z,18.59
2022-10-29T10:48:49.148Z,18.64
2022-10-29T10:50:20.599Z,20.64
2022-10-29T10:51:52.281Z,20.16
2022-10-29T10:53:23.819Z,15.54
2022-10-29T10:54:55.225Z,19.61
2022-10-29T10:56:26.655Z,21.15
2022-10-29T10:57:58.085Z,16.98
2022-10-29T10:59:29.536Z,16.37
2022-10-29T11:01:01.186Z,19.28
2022-10-29T11:02:33.044Z,19.69
2022-10-29T11:04:04.655Z,18.44
2022-10-29T11:05:36.159Z,17.28
2022-10-29T11:07:07.572Z,17.65
2022-10-29T11:08:39.156Z,19.16
2022-10-29T11:10:10.659Z,17.44
2022-10-29T11:11:42.253Z,18.96
2022-10-29T11:13:13.823Z,17.77
2022-10-29T11:14:45.515Z,19.46
2022-10-29T11:16:17.232Z,19.15
2022-10-29T11:17:53.929Z,18.74
2022-10-29T11:19:25.873Z,16.97
2022-10-29T11:20:57.630Z,15.78
2022-10-29T11:22:29.093Z,17.13
2022-10-29T11:24:00.606Z,14.42
2022-10-29T11:25:32.084Z,14.61
2022-10-29T11:27:03.533Z,18.65
2022-10-29T11:28:35.413Z,16.89
2022-10-29T11:30:07.311Z,17.25
2022-10-29T11:31:39.140Z,16.96
2022-10-29T11:33:10.919Z,20.03
2022-10-29T11:34:42.541Z,17.36
2022-10-29T11:36:13.982Z,19.42
2022-10-29T11:37:45.769Z,17.04
2022-10-29T11:39:17.352Z,18.39
2022-10-29T11:40:48.873Z,13.12
2022-10-29T11:42:20.556Z,15.31
2022-10-29T11:43:52.362Z,15.03
2022-10-29T11:45:24.209Z,16.96
2022-10-29T11:47:05.981Z,17.95
2022-10-29T11:48:37.679Z,17.74
2022-10-29T11:50:09.261Z,15.59
2022-10-29T11:51:41.028Z,18.34
2022-10-29T11:53:12.714Z,23.92
2022-10-29T11:54:44.189Z,19.32
2022-10-29T11:56:15.957Z,16.96
2022-10-29T11:57:47.769Z,15.17
2022-10-29T11:59:19.244Z,15.85
2022-10-29T12:00:50.733Z,19.98
2022-10-29T12:02:24.615Z,17.42
2022-10-29T12:03:56.381Z,18.67
2022-10-29T12:05:27.898Z,19.53
2022-10-29T12:06:59.400Z,18.88
2022-10-29T12:08:30.878Z,14.87
2022-10-29T12:10:02.538Z,17.73
2022-10-29T12:11:37.779Z,16.15
2022-10-29T12:13:12.042Z,18.21
2022-10-29T12:14:53.522Z,17.47
2022-10-29T12:16:25.131Z,20.27
2022-10-29T12:17:57.101Z,22.73
2022-10-29T12:19:28.905Z,20.64
2022-10-29T12:21:00.475Z,19.39
2022-10-29T12:22:31.980Z,18.79
2022-10-29T12:24:03.450Z,20.03
2022-10-29T12:25:35.068Z,16.06
2022-10-29T12:27:06.542Z,18.06
2022-10-29T12:28:38.264Z,19.09
2022-10-29T12:30:09.980Z,16.92
2022-10-29T12:31:41.500Z,16.77
2022-10-29T12:33:12.996Z,17.55
2022-10-29T12:34:54.802Z,17.83
2022-10-29T12:36:26.513Z,17.91
2022-10-29T12:37:58.453Z,16.43
2022-10-29T12:39:30.415Z,18.92
2022-10-29T12:41:34.567Z,16.72
2022-10-29T12:43:06.112Z,16.76
2022-10-29T12:44:40.035Z,18.36
2022-10-29T12:46:20.490Z,15.70
2022-10-29T12:47:53.388Z,17.72
2022-10-29T12:49:25.875Z,14.82
2022-10-29T12:51:02.462Z,18.45
2022-10-29T12:52:34.283Z,17.93
2022-10-29T12:54:05.853Z,19.04
2022-10-29T12:55:37.559Z,18.03
2022-10-29T12:57:09.570Z,17.81
2022-10-29T12:58:41.423Z,17.99
2022-10-29T13:00:18.037Z,17.92
2022-10-29T13:02:10.376Z,18.34
2022-10-29T13:03:43.761Z,18.60
2022-10-29T13:05:15.355Z,15.83
2022-10-29T13:06:47.228Z,16.13
2022-10-29T13:08:18.864Z,15.45
2022-10-29T13:09:50.475Z,19.79
2022-10-29T13:11:22.180Z,14.54
2022-10-29T13:12:53.905Z,18.05
2022-10-29T13:14:25.929Z,19.01
2022-10-29T13:15:57.603Z,22.76
2022-10-29T13:17:29.153Z,20.31
2022-10-29T13:19:00.801Z,18.04
2022-10-29T13:20:32.316Z,14.36
2022-10-29T13:22:03.764Z,19.49
2022-10-29T13:23:35.376Z,15.24
2022-10-29T13:25:06.828Z,13.83
2022-10-29T13:26:38.600Z,16.66
2022-10-29T13:28:11.325Z,17.95
2022-10-29T13:29:48.114Z,15.40
2022-10-29T13:31:19.920Z,17.76
2022-10-29T13:32:51.615Z,15.66
2022-10-29T13:34:23.110Z,18.62
2022-10-29T13:35:54.876Z,17.18
2022-10-29T13:37:26.360Z,20.99
2022-10-29T13:39:06.480Z,18.73
2022-10-29T13:40:38.842Z,20.02
2022-10-29T13:42:10.291Z,19.31
2022-10-29T13:43:41.865Z,16.55
2022-10-29T13:45:13.330Z,16.30
2022-10-29T13:46:45.882Z,15.12
2022-10-29T13:48:17.892Z,16.46
2022-10-29T13:49:49.456Z,17.54
2022-10-29T13:51:21.332Z,16.54
2022-10-29T13:52:58.404Z,15.65
2022-10-29T13:54:30.716Z,19.77
2022-10-29T13:56:02.280Z,21.32
2022-10-29T13:57:34.022Z,21.96
2022-10-29T13:59:06.110Z,16.39
2022-10-29T14:00:37.613Z,13.73
2022-10-29T14:02:09.432Z,15.03
2022-10-29T14:03:41.213Z,15.19
2022-10-29T14:05:13.183Z,19.43
2022-10-29T14:06:45.678Z,21.48
2022-10-29T14:08:17.704Z,18.38
2022-10-29T14:09:51.196Z,18.68
2022-10-29T14:11:24.149Z,18.21
2022-10-29T14:12:56.561Z,19.90
2022-10-29T14:14:28.336Z,17.47
2022-10-29T14:16:05.013Z,18.97
2022-10-29T14:17:41.732Z,17.31
2022-10-29T14:19:13.196Z,16.92
2022-10-29T14:20:45.179Z,19.73
2022-10-29T14:22:18.087Z,21.95
2022-10-29T14:24:00.573Z,18.70
2022-10-29T14:25:34.715Z,17.24
2022-10-29T14:27:06.572Z,17.69
2022-10-29T14:28:52.761Z,17.93
2022-10-29T14:30:29.599Z,18.86
2022-10-29T14:32:01.324Z,16.76
2022-10-29T14:33:32.804Z,17.98
2022-10-29T14:35:04.594Z,15.63
2022-10-29T14:36:36.256Z,16.08
2022-10-29T14:38:11.347Z,14.74
2022-10-29T14:39:57.160Z,15.78
2022-10-29T14:41:29.708Z,17.50
2022-10-29T14:43:01.597Z,19.59
2022-10-29T14:44:33.358Z,17.38
2022-10-29T14:46:05.066Z,16.01
2022-10-29T14:47:36.785Z,18.10
2022-10-29T14:49:08.437Z,18.85
2022-10-29T14:50:40.256Z,15.86
2022-10-29T14:52:11.776Z,16.01
2022-10-29T14:53:43.577Z,15.81
2022-10-29T14:55:15.141Z,19.46
2022-10-29T14:56:46.776Z,17.94
2022-10-29T14:58:18.318Z,16.70
2022-10-29T14:59:49.810Z,18.20
2022-10-29T15:01:21.385Z,16.43
2022-10-29T15:02:53.042Z,17.05
2022-10-29T15:04:24.686Z,19.06
2022-10-29T15:05:56.269Z,19.06
2022-10-29T15:07:27.756Z,17.40
2022-10-29T15:08:59.196Z,18.81
2022-10-29T15:10:30.712Z,18.37
2022-10-29T15:12:02.221Z,17.82
2022-10-29T15:13:33.689Z,18.11
2022-10-29T15:15:05.319Z,16.41
2022-10-29T15:16:39.826Z,17.44
2022-10-29T15:18:13.875Z,14.26
2022-10-29T15:19:45.408Z,20.27
2022-10-29T15:21:17.027Z,18.63
2022-10-29T15:22:48.638Z,23.28
2022-10-29T15:24:20.602Z,26.32
2022-10-29T15:25:52.444Z,22.83
2022-10-29T15:27:23.918Z,21.56
2022-10-29T15:28:55.540Z,23.71
2022-10-29T15:30:27.021Z,19.13
2022-10-29T15:31:58.598Z,19.87
2022-10-29T15:33:30.319Z,20.40
2022-10-29T15:35:02.021Z,22.79
2022-10-29T15:36:33.808Z,23.46
2022-10-29T15:38:05.369Z,22.39
2022-10-29T15:39:37.002Z,21.19
2022-10-29T15:41:08.527Z,19.97
2022-10-29T15:42:40.158Z,25.59
2022-10-29T15:44:11.639Z,22.73
2022-10-29T15:45:43.162Z,19.72
2022-10-29T15:47:14.614Z,20.46
2022-10-29T15:48:46.605Z,17.70
2022-10-29T15:50:18.137Z,18.81
2022-10-29T15:51:54.664Z,22.10
2022-10-29T15:53:26.386Z,18.83
2022-10-29T15:54:57.858Z,19.21
2022-10-29T15:56:29.503Z,23.09
2022-10-29T15:58:01.192Z,20.15
2022-10-29T15:59:33.017Z,21.69
2022-10-29T16:01:05.133Z,24.78
2022-10-29T16:02:36.685Z,43.59
2022-10-29T16:04:08.530Z,26.90
2022-10-29T16:05:40.004Z,22.13
2022-10-29T16:07:12.074Z,20.07
2022-10-29T16:08:48.601Z,21.87
2022-10-29T16:10:20.055Z,20.53
2022-10-29T16:11:51.799Z,20.39
2022-10-29T16:13:43.099Z,21.92
2022-10-29T16:15:20.323Z,21.53
2022-10-29T16:16:51.977Z,17.39
2022-10-29T16:18:48.912Z,17.96
2022-10-29T16:20:20.348Z,24.25
2022-10-29T16:22:19.166Z,22.48
2022-10-29T16:23:50.841Z,19.75
2022-10-29T16:25:22.341Z,16.89
2022-10-29T16:26:53.787Z,21.26
2022-10-29T16:28:25.317Z,20.00
2022-10-29T16:29:56.816Z,17.09
2022-10-29T16:31:28.244Z,20.85
2022-10-29T16:33:00.263Z,20.66
2022-10-29T16:34:32.011Z,22.15
2022-10-29T16:36:03.513Z,23.64
2022-10-29T16:37:45.176Z,22.22
2022-10-29T16:39:16.597Z,18.67
2022-10-29T16:40:48.022Z,20.84
2022-10-29T16:42:19.799Z,19.62
2022-10-29T16:43:51.306Z,17.99
2022-10-29T16:45:22.922Z,24.41
2022-10-29T16:46:54.617Z,23.93
2022-10-29T16:48:26.284Z,20.62
2022-10-29T16:49:58.060Z,20.93
2022-10-29T16:51:29.534Z,21.34
2022-10-29T16:53:01.276Z,21.23
2022-10-29T16:54:42.876Z,19.25
2022-10-29T16:56:14.315Z,17.31
2022-10-29T16:57:45.731Z,19.71
2022-10-29T16:59:17.368Z,22.13
2022-10-29T17:00:49.632Z,16.69
2022-10-29T17:02:21.492Z,20.35
2022-10-29T17:03:53.427Z,18.95
2022-10-29T17:05:25.007Z,17.66
2022-10-29T17:06:56.500Z,19.74
2022-10-29T17:08:28.077Z,22.82
2022-10-29T17:09:59.691Z,22.27
2022-10-29T17:11:31.103Z,16.34
2022-10-29T17:13:02.548Z,22.75
2022-10-29T17:14:33.988Z,16.94
2022-10-29T17:16:05.482Z,20.50
2022-10-29T17:17:38.161Z,19.77
2022-10-29T17:19:10.548Z,19.58
2022-10-29T17:20:47.103Z,22.56
2022-10-29T17:22:18.497Z,23.71
2022-10-29T17:23:49.991Z,16.36
2022-10-29T17:25:21.480Z,20.09
2022-10-29T17:26:52.991Z,17.87
2022-10-29T17:28:24.392Z,22.59
2022-10-29T17:29:56.302Z,18.99
2022-10-29T17:31:27.764Z,21.23
2022-10-29T17:33:00.215Z,20.26
2022-10-29T17:34:32.359Z,19.89
2022-10-29T17:36:03.711Z,17.47
2022-10-29T17:37:35.365Z,18.56
2022-10-29T17:39:06.817Z,19.77
2022-10-29T17:40:38.225Z,19.66
2022-10-29T17:42:09.966Z,18.06
2022-10-29T17:43:41.483Z,17.39
2022-10-29T17:45:12.911Z,19.25
2022-10-29T17:46:44.341Z,20.86
2022-10-29T17:48:18.647Z,19.97
2022-10-29T17:50:01.275Z,18.91
2022-10-29T17:51:32.914Z,20.38
2022-10-29T17:53:09.319Z,20.81
2022-10-29T17:54:40.854Z,18.37
2022-10-29T17:56:12.390Z,24.00
2022-10-29T17:57:43.847Z,17.51
2022-10-29T17:59:15.278Z,19.34
2022-10-29T18:00:46.744Z,19.93
2022-10-29T18:02:18.381Z,21.20
2022-10-29T18:03:49.855Z,17.51
2022-10-29T18:05:21.457Z,19.46
2022-10-29T18:06:52.945Z,18.64
2022-10-29T18:08:24.449Z,19.22
2022-10-29T18:09:55.968Z,20.08
2022-10-29T18:11:27.442Z,21.19
2022-10-29T18:12:58.923Z,20.24
2022-10-29T18:14:30.295Z,19.77
2022-10-29T18:16:01.692Z,16.79
2022-10-29T18:17:33.310Z,18.07
2022-10-29T18:19:04.834Z,18.14
2022-10-29T18:20:36.571Z,18.28
2022-10-29T18:22:08.108Z,17.24
2022-10-29T18:23:39.630Z,17.85
2022-10-29T18:25:24.703Z,16.23
2022-10-29T18:26:56.585Z,14.26
2022-10-29T18:28:28.860Z,14.96
2022-10-29T18:30:00.500Z,17.43
2022-10-29T18:31:32.466Z,12.52
2022-10-29T18:33:03.855Z,14.65
2022-10-29T18:34:35.309Z,14.24
2022-10-29T18:36:07.070Z,16.40
2022-10-29T18:37:38.489Z,16.71
2022-10-29T18:39:11.008Z,14.30
2022-10-29T18:40:42.668Z,18.99
2022-10-29T18:42:14.241Z,16.44
2022-10-29T18:43:46.281Z,18.40
2022-10-29T18:45:17.946Z,15.86
2022-10-29T18:46:49.524Z,17.48
2022-10-29T18:48:21.255Z,18.10
2022-10-29T18:49:52.818Z,18.62
2022-10-29T18:51:24.288Z,14.28
2022-10-29T18:53:01.191Z,17.53
2022-10-29T18:54:32.990Z,17.91
2022-10-29T18:56:04.471Z,18.22
2022-10-29T18:57:36.070Z,15.54
2022-10-29T18:59:17.558Z,17.35
2022-10-29T19:00:49.112Z,15.52
2022-10-29T19:02:25.743Z,17.97
2022-10-29T19:03:57.259Z,17.33
2022-10-29T19:05:28.783Z,16.32
2022-10-29T19:07:00.354Z,19.80
2022-10-29T19:08:31.815Z,16.74
2022-10-29T19:10:42.442Z,17.25
2022-10-29T19:12:19.143Z,16.94
2022-10-29T19:13:50.557Z,17.42
2022-10-29T19:15:22.386Z,16.81
2022-10-29T19:17:03.915Z,14.59
2022-10-29T19:19:07.824Z,15.19
2022-10-29T19:20:39.765Z,17.60
2022-10-29T19:22:11.325Z,17.16
2022-10-29T19:23:43.080Z,15.72
2022-10-29T19:25:25.123Z,16.95
2022-10-29T19:26:56.539Z,15.32
2022-10-29T19:28:27.926Z,14.75
2022-10-29T19:29:59.317Z,14.72
2022-10-29T19:31:31.139Z,17.00
2022-10-29T19:33:07.775Z,14.83
2022-10-29T19:34:39.974Z,16.47
2022-10-29T19:36:11.589Z,15.38
2022-10-29T19:37:43.001Z,15.72
2022-10-29T19:39:14.351Z,15.28
2022-10-29T19:40:45.956Z,13.63
2022-10-29T19:42:17.338Z,14.01
2022-10-29T19:43:48.905Z,16.63
2022-10-29T19:45:20.359Z,15.97
2022-10-29T19:46:51.809Z,17.08
2022-10-29T19:48:23.206Z,13.60
2022-10-29T19:50:04.602Z,17.02
2022-10-29T19:51:36.299Z,16.27
2022-10-29T19:53:08.372Z,15.18
2022-10-29T19:54:40.023Z,15.94
2022-10-29T19:56:11.755Z,14.75
2022-10-29T19:57:43.178Z,16.26
2022-10-29T19:59:14.727Z,16.06
2022-10-29T20:00:46.202Z,14.85
2022-10-29T20:02:17.844Z,16.84
2022-10-29T20:03:49.271Z,14.10